createdAt,value
2024-02-10T00:01:39.191Z,11.70
2024-02-10T00:04:07.404Z,12.40
2024-02-10T00:06:35.235Z,12.60
2024-02-10T00:09:02.882Z,13.50
2024-02-10T00:11:30.615Z,12.40
2024-02-10T00:13:58.122Z,12.70
2024-02-10T00:16:25.764Z,12.40
2024-02-10T00:18:53.453Z,12.50
2024-02-10T00:21:21.152Z,11.80
2024-02-10T00:23:48.714Z,10.60
2024-02-10T00:26:16.582Z,11.10
2024-02-10T00:28:44.279Z,11.30
2024-02-10T00:31:11.860Z,10.00
2024-02-10T00:33:39.514Z,11.10
2024-02-10T00:36:07.131Z,9.90
2024-02-10T00:38:34.685Z,9.20
2024-02-10T00:41:02.275Z,10.00
2024-02-10T00:43:29.947Z,9.80
2024-02-10T00:45:57.980Z,9.60
2024-02-10T00:48:25.728Z,9.70
2024-02-10T00:50:53.495Z,9.40
2024-02-10T00:53:21.166Z,9.80
2024-02-10T00:55:48.810Z,10.30
2024-02-10T00:58:16.623Z,10.40
2024-02-10T01:00:44.247Z,10.40
2024-02-10T01:03:11.941Z,9.50
2024-02-10T01:05:40.055Z,9.80
2024-02-10T01:08:08.000Z,10.50
2024-02-10T01:10:35.887Z,10.80
2024-02-10T01:13:03.697Z,10.80
2024-02-10T01:15:31.239Z,11.00
2024-02-10T01:17:58.962Z,10.10
2024-02-10T01:20:26.667Z,10.90
2024-02-10T01:22:54.260Z,10.90
2024-02-10T01:25:21.900Z,11.30
2024-02-10T01:27:49.955Z,11.00
2024-02-10T01:30:17.629Z,10.40
2024-02-10T01:32:45.281Z,10.20
2024-02-10T01:35:12.903Z,11.90
2024-02-10T01:37:40.660Z,11.20
2024-02-10T01:40:08.383Z,11.10
2024-02-10T01:42:35.745Z,10.00
2024-02-10T01:45:03.276Z,11.20
2024-02-10T01:47:30.882Z,12.30
2024-02-10T01:49:59.105Z,12.40
2024-02-10T01:52:26.795Z,10.50
2024-02-10T01:54:54.538Z,10.00
2024-02-10T01:57:22.092Z,9.70
2024-02-10T01:59:49.752Z,10.20
2024-02-10T02:02:17.314Z,10.40
2024-02-10T02:04:44.992Z,7.90
2024-02-10T02:07:12.723Z,9.40
2024-02-10T02:09:40.395Z,10.10
2024-02-10T02:12:07.961Z,10.40
2024-02-10T02:14:35.622Z,9.30
2024-02-10T02:17:03.168Z,8.90
2024-02-10T02:19:30.769Z,9.40
2024-02-10T02:21:58.398Z,9.50
2024-02-10T02:24:25.955Z,8.80
2024-02-10T02:26:53.508Z,8.70
2024-02-10T02:29:22.820Z,7.60
2024-02-10T02:31:50.518Z,8.80
2024-02-10T02:34:18.596Z,8.20
2024-02-10T02:36:46.310Z,7.00
2024-02-10T02:39:13.877Z,8.50
2024-02-10T02:41:41.532Z,8.90
2024-02-10T02:44:09.090Z,8.20
2024-02-10T02:46:36.665Z,7.70
2024-02-10T02:49:04.356Z,7.60
2024-02-10T02:51:31.979Z,7.70
2024-02-10T02:53:59.429Z,7.50
2024-02-10T02:56:26.986Z,7.70
2024-02-10T02:58:54.638Z,8.00
2024-02-10T03:01:22.424Z,8.20
2024-02-10T03:03:50.126Z,7.50
2024-02-10T03:06:17.964Z,7.70
2024-02-10T03:08:45.597Z,7.80
2024-02-10T03:11:13.151Z,7.20
2024-02-10T03:13:41.178Z,7.10
2024-02-10T03:16:08.996Z,7.30
2024-02-10T03:18:36.597Z,8.10
2024-02-10T03:21:04.308Z,7.30
2024-02-10T03:23:31.876Z,7.50
2024-02-10T03:25:59.574Z,7.80
2024-02-10T03:28:27.226Z,7.30
2024-02-10T03:30:54.864Z,7.20
2024-02-10T03:33:22.600Z,7.10
2024-02-10T03:35:50.728Z,6.60
2024-02-10T03:38:18.553Z,7.70
2024-02-10T03:40:46.160Z,7.40
2024-02-10T03:43:13.707Z,7.00
2024-02-10T03:45:41.461Z,6.40
2024-02-10T03:48:09.199Z,7.60
2024-02-10T03:50:36.863Z,7.00
2024-02-10T03:53:04.565Z,7.00
2024-02-10T03:55:32.238Z,6.90
2024-02-10T03:57:59.844Z,6.00
2024-02-10T04:00:27.424Z,6.80
2024-02-10T04:02:55.073Z,6.60
2024-02-10T04:05:22.786Z,6.90
2024-02-10T04:07:50.458Z,8.80
2024-02-10T04:10:18.321Z,6.00
2024-02-10T04:12:45.919Z,5.60
2024-02-10T04:15:13.796Z,5.70
2024-02-10T04:17:41.488Z,5.90
2024-02-10T04:20:09.160Z,5.60
2024-02-10T04:22:36.740Z,7.00
2024-02-10T04:25:04.532Z,6.50
2024-02-10T04:27:32.092Z,6.30
2024-02-10T04:29:59.653Z,6.50
2024-02-10T04:32:27.340Z,6.00
2024-02-10T04:34:55.264Z,4.80
2024-02-10T04:37:23.092Z,8.20
2024-02-10T04:39:51.113Z,7.10
2024-02-10T04:42:18.670Z,7.20
2024-02-10T04:44:46.237Z,8.00
2024-02-10T04:47:13.791Z,6.80
2024-02-10T04:49:41.484Z,7.50
2024-02-10T04:52:09.221Z,8.10
2024-02-10T04:54:36.771Z,9.70
2024-02-10T04:57:04.338Z,8.00
2024-02-10T04:59:31.788Z,8.10
2024-02-10T05:01:59.695Z,7.80
2024-02-10T05:04:27.539Z,8.00
2024-02-10T05:06:55.182Z,8.80
2024-02-10T05:09:22.850Z,8.60
2024-02-10T05:11:50.511Z,8.00
2024-02-10T05:14:18.382Z,8.80
2024-02-10T05:16:45.977Z,7.90
2024-02-10T05:19:13.793Z,7.20
2024-02-10T05:21:41.461Z,9.30
2024-02-10T05:24:09.120Z,7.30
2024-02-10T05:26:36.682Z,8.50
2024-02-10T05:29:04.350Z,7.70
2024-02-10T05:31:31.923Z,8.40
2024-02-10T05:33:59.582Z,8.80
2024-02-10T05:36:27.117Z,10.10
2024-02-10T05:38:54.780Z,7.90
2024-02-10T05:41:22.447Z,7.80
2024-02-10T05:43:50.388Z,8.00
2024-02-10T05:46:18.182Z,8.20
2024-02-10T05:48:45.812Z,9.20
2024-02-10T05:51:13.597Z,9.60
2024-02-10T05:53:41.156Z,7.80
2024-02-10T05:56:08.842Z,9.00
2024-02-10T05:58:36.403Z,8.90
2024-02-10T06:01:04.045Z,10.40
2024-02-10T06:03:31.921Z,9.90
2024-02-10T06:05:59.586Z,9.70
2024-02-10T06:08:27.327Z,9.00
2024-02-10T06:10:54.894Z,9.60
2024-02-10T06:13:22.480Z,10.30
2024-02-10T06:15:50.008Z,9.00
2024-02-10T06:18:17.679Z,9.50
2024-02-10T06:20:45.241Z,10.70
2024-02-10T06:23:12.892Z,11.60
2024-02-10T06:25:43.631Z,9.80
2024-02-10T06:28:11.592Z,9.60
2024-02-10T06:30:39.151Z,9.50
2024-02-10T06:33:06.826Z,8.80
2024-02-10T06:35:34.673Z,9.00
2024-02-10T06:38:02.277Z,8.80
2024-02-10T06:40:30.186Z,8.50
2024-02-10T06:42:58.089Z,8.50
2024-02-10T06:45:26.552Z,9.00
2024-02-10T06:47:54.746Z,8.30
2024-02-10T06:50:22.703Z,11.50
2024-02-10T06:52:50.415Z,22.60
2024-02-10T06:55:18.037Z,16.70
2024-02-10T06:57:45.777Z,12.10
2024-02-10T07:00:13.332Z,13.70
2024-02-10T07:02:40.691Z,16.90
2024-02-10T07:05:08.380Z,26.60
2024-02-10T07:07:36.652Z,33.30
2024-02-10T07:10:04.287Z,22.90
2024-02-10T07:12:31.645Z,24.90
2024-02-10T07:14:59.201Z,32.40
2024-02-10T07:17:26.863Z,24.70
2024-02-10T07:19:54.737Z,16.70
2024-02-10T07:22:22.422Z,15.20
2024-02-10T07:24:50.160Z,13.20
2024-02-10T07:27:17.815Z,12.90
2024-02-10T07:29:45.380Z,12.00
2024-02-10T07:32:13.037Z,11.70
2024-02-10T07:34:40.919Z,11.90
2024-02-10T07:37:08.458Z,11.30
2024-02-10T07:39:36.117Z,12.60
2024-02-10T07:42:03.675Z,12.00
2024-02-10T07:44:31.238Z,10.90
2024-02-10T07:46:58.860Z,10.70
2024-02-10T07:49:26.563Z,9.90
2024-02-10T07:51:54.117Z,9.30
2024-02-10T07:54:21.787Z,8.90
2024-02-10T07:56:49.342Z,9.30
2024-02-10T07:59:17.022Z,8.60
2024-02-10T08:01:44.595Z,9.60
2024-02-10T08:04:12.108Z,8.90
2024-02-10T08:06:39.713Z,8.40
2024-02-10T08:09:07.337Z,9.20
2024-02-10T08:11:35.001Z,8.30
2024-02-10T08:14:02.675Z,7.40
2024-02-10T08:16:30.392Z,8.20
2024-02-10T08:18:58.205Z,10.10
2024-02-10T08:21:25.956Z,9.40
2024-02-10T08:23:53.555Z,9.10
2024-02-10T08:26:21.301Z,9.20
2024-02-10T08:28:49.074Z,10.80
2024-02-10T08:31:16.805Z,11.20
2024-02-10T08:33:45.025Z,13.40
2024-02-10T08:36:12.835Z,12.00
2024-02-10T08:38:40.547Z,12.90
2024-02-10T08:41:08.247Z,13.70
2024-02-10T08:43:35.947Z,13.30
2024-02-10T08:46:03.592Z,14.80
2024-02-10T08:48:31.237Z,14.60
2024-02-10T08:50:59.058Z,14.10
2024-02-10T08:53:26.990Z,14.20
2024-02-10T08:55:54.696Z,14.70
2024-02-10T08:58:22.342Z,14.20
2024-02-10T09:00:50.018Z,15.40
2024-02-10T09:03:17.821Z,13.80
2024-02-10T09:05:45.489Z,14.80
2024-02-10T09:08:13.127Z,15.70
2024-02-10T09:10:40.945Z,15.40
2024-02-10T09:13:08.890Z,17.40
2024-02-10T09:15:36.463Z,15.00
2024-02-10T09:18:04.269Z,15.20
2024-02-10T09:20:31.983Z,13.30
2024-02-10T09:22:59.691Z,16.80
2024-02-10T09:25:27.488Z,15.20
2024-02-10T09:27:55.359Z,15.20
2024-02-10T09:30:22.937Z,14.80
2024-02-10T09:32:50.545Z,12.90
2024-02-10T09:35:25.035Z,11.60
2024-02-10T09:37:56.198Z,11.80
2024-02-10T09:40:23.991Z,12.30
2024-02-10T09:42:51.782Z,11.00
2024-02-10T09:45:19.336Z,11.20
2024-02-10T09:47:47.029Z,11.80
2024-02-10T09:50:27.670Z,11.60
2024-02-10T09:53:02.038Z,10.60
2024-02-10T09:55:29.765Z,11.70
2024-02-10T09:57:57.401Z,12.30
2024-02-10T10:00:24.970Z,12.40
2024-02-10T10:02:52.570Z,11.90
2024-02-10T10:05:20.475Z,9.90
2024-02-10T10:07:48.279Z,11.70
2024-02-10T10:10:15.914Z,11.20
2024-02-10T10:12:44.189Z,11.90
2024-02-10T10:15:11.867Z,10.90
2024-02-10T10:17:39.468Z,9.50
2024-02-10T10:20:07.258Z,8.60
2024-02-10T10:22:34.782Z,8.00
2024-02-10T10:25:02.430Z,9.20
2024-02-10T10:27:30.062Z,8.50
2024-02-10T10:29:57.690Z,8.00
2024-02-10T10:32:25.517Z,7.40
2024-02-10T10:34:53.164Z,7.90
2024-02-10T10:37:20.702Z,9.90
2024-02-10T10:39:48.380Z,7.70
2024-02-10T10:42:16.039Z,8.40
2024-02-10T10:44:43.695Z,8.50
2024-02-10T10:47:11.301Z,7.40
2024-02-10T10:49:39.158Z,7.80
2024-02-10T10:52:06.783Z,7.70
2024-02-10T10:54:34.326Z,7.70
2024-02-10T10:57:02.341Z,8.20
2024-02-10T10:59:29.855Z,8.60
2024-02-10T11:01:57.550Z,9.40
2024-02-10T11:04:25.207Z,8.00
2024-02-10T11:06:52.955Z,8.90
2024-02-10T11:09:20.504Z,8.30
2024-02-10T11:11:48.165Z,8.10
2024-02-10T11:14:15.748Z,8.50
2024-02-10T11:16:43.726Z,7.20
2024-02-10T11:19:12.920Z,7.10
2024-02-10T11:21:41.992Z,6.60
2024-02-10T11:24:09.656Z,6.00
2024-02-10T11:26:37.204Z,6.70
2024-02-10T11:29:04.902Z,6.80
2024-02-10T11:31:32.675Z,7.80
2024-02-10T11:34:00.650Z,6.80
2024-02-10T11:36:29.660Z,7.20
2024-02-10T11:38:57.359Z,7.10
2024-02-10T11:41:25.328Z,6.30
2024-02-10T11:43:52.947Z,6.00
2024-02-10T11:46:20.782Z,7.90
2024-02-10T11:48:48.380Z,5.90
2024-02-10T11:51:15.962Z,6.40
2024-02-10T11:53:43.626Z,5.60
2024-02-10T11:56:11.354Z,6.20
2024-02-10T11:58:39.272Z,5.40
2024-02-10T12:01:07.424Z,5.90
2024-02-10T12:03:35.210Z,5.40
2024-02-10T12:06:03.137Z,6.10
2024-02-10T12:08:30.935Z,5.90
2024-02-10T12:10:58.713Z,10.40
2024-02-10T12:13:26.633Z,10.30
2024-02-10T12:15:54.341Z,6.60
2024-02-10T12:18:21.906Z,6.30
2024-02-10T12:20:49.552Z,8.10
2024-02-10T12:23:17.216Z,8.30
2024-02-10T12:25:44.801Z,6.50
2024-02-10T12:28:12.431Z,6.70
2024-02-10T12:30:39.983Z,7.20
2024-02-10T12:33:07.614Z,8.20
2024-02-10T12:35:35.300Z,8.50
2024-02-10T12:38:02.979Z,7.50
2024-02-10T12:40:30.747Z,7.30
2024-02-10T12:42:58.384Z,7.50
2024-02-10T12:45:25.955Z,7.90
2024-02-10T12:47:53.672Z,6.70
2024-02-10T12:50:21.443Z,6.10
2024-02-10T12:52:49.151Z,4.80
2024-02-10T12:55:16.835Z,5.00
2024-02-10T12:57:44.495Z,4.70
2024-02-10T13:00:12.022Z,4.30
2024-02-10T13:02:39.479Z,4.80
2024-02-10T13:05:07.080Z,3.90
2024-02-10T13:07:34.952Z,4.10
2024-02-10T13:10:02.772Z,4.60
2024-02-10T13:12:30.321Z,4.70
2024-02-10T13:14:57.886Z,4.00
2024-02-10T13:17:25.711Z,4.80
2024-02-10T13:19:54.004Z,4.20
2024-02-10T13:22:22.010Z,4.50
2024-02-10T13:24:49.661Z,4.40
2024-02-10T13:27:17.520Z,4.50
2024-02-10T13:29:45.444Z,4.90
2024-02-10T13:32:13.271Z,4.10
2024-02-10T13:34:50.871Z,3.80
2024-02-10T13:37:28.471Z,3.90
2024-02-10T13:39:56.013Z,3.50
2024-02-10T13:42:23.666Z,4.70
2024-02-10T13:44:51.525Z,4.70
2024-02-10T13:47:19.087Z,4.10
2024-02-10T13:49:46.758Z,4.30
2024-02-10T13:52:14.309Z,5.80
2024-02-10T13:54:41.973Z,5.00
2024-02-10T13:57:09.532Z,4.60
2024-02-10T13:59:37.195Z,3.90
2024-02-10T14:02:04.785Z,4.70
2024-02-10T14:04:32.900Z,4.50
2024-02-10T14:07:00.585Z,3.90
2024-02-10T14:09:28.145Z,5.10
2024-02-10T14:11:55.815Z,4.50
2024-02-10T14:14:23.366Z,4.20
2024-02-10T14:16:51.057Z,4.50
2024-02-10T14:19:18.683Z,4.20
2024-02-10T14:21:46.262Z,5.00
2024-02-10T14:24:15.367Z,4.10
2024-02-10T14:26:44.135Z,4.50
2024-02-10T14:29:11.887Z,4.80
2024-02-10T14:31:39.615Z,6.20
2024-02-10T14:34:07.341Z,5.30
2024-02-10T14:36:34.977Z,4.70
2024-02-10T14:39:02.433Z,6.60
2024-02-10T14:41:30.097Z,5.00
2024-02-10T14:43:57.775Z,5.20
2024-02-10T14:46:25.329Z,5.30
2024-02-10T14:48:53.226Z,5.70
2024-02-10T14:51:21.050Z,7.30
2024-02-10T14:53:48.717Z,5.90
2024-02-10T14:56:16.364Z,6.00
2024-02-10T14:58:44.172Z,5.50
2024-02-10T15:01:12.176Z,8.20
2024-02-10T15:03:40.144Z,6.50
2024-02-10T15:06:07.938Z,7.40
2024-02-10T15:08:35.603Z,6.50
2024-02-10T15:11:03.550Z,5.60
2024-02-10T15:13:31.339Z,5.60
2024-02-10T15:15:58.909Z,6.20
2024-02-10T15:18:26.557Z,5.30
2024-02-10T15:20:54.209Z,6.40
2024-02-10T15:23:21.767Z,5.70
2024-02-10T15:25:49.356Z,6.50
2024-02-10T15:28:17.398Z,8.00
2024-02-10T15:30:44.960Z,7.80
2024-02-10T15:33:12.567Z,6.80
2024-02-10T15:35:40.373Z,6.10
2024-02-10T15:38:08.161Z,5.40
2024-02-10T15:40:35.847Z,5.80
2024-02-10T15:43:03.475Z,5.40
2024-02-10T15:45:31.030Z,7.50
2024-02-10T15:47:58.820Z,8.20
2024-02-10T15:50:26.455Z,5.70
2024-02-10T15:52:54.220Z,6.20
2024-02-10T15:55:21.878Z,6.60
2024-02-10T15:57:49.548Z,6.50
2024-02-10T16:00:17.555Z,7.20
2024-02-10T16:02:45.071Z,8.60
2024-02-10T16:05:12.855Z,7.50
2024-02-10T16:07:40.598Z,7.30
2024-02-10T16:10:08.350Z,6.40
2024-02-10T16:12:35.911Z,8.60
2024-02-10T16:15:03.891Z,10.10
2024-02-10T16:17:31.564Z,11.10
2024-02-10T16:19:59.217Z,8.20
2024-02-10T16:22:26.796Z,6.80
2024-02-10T16:24:54.524Z,7.40
2024-02-10T16:27:22.089Z,7.70
2024-02-10T16:29:50.574Z,7.20
2024-02-10T16:32:18.193Z,6.70
2024-02-10T16:34:45.814Z,10.30
2024-02-10T16:37:13.456Z,12.50
2024-02-10T16:39:41.111Z,15.40
2024-02-10T16:42:08.669Z,16.50
2024-02-10T16:44:36.222Z,9.90
2024-02-10T16:47:04.439Z,10.80
2024-02-10T16:49:32.099Z,8.10
2024-02-10T16:51:59.940Z,7.90
2024-02-10T16:54:27.685Z,7.10
2024-02-10T16:56:55.654Z,7.70
2024-02-10T16:59:26.196Z,13.40
2024-02-10T17:01:55.424Z,16.80
2024-02-10T17:04:23.295Z,15.70
2024-02-10T17:06:51.232Z,25.70
2024-02-10T17:09:18.781Z,42.40
2024-02-10T17:11:46.437Z,45.50
2024-02-10T17:14:14.052Z,43.60
2024-02-10T17:16:41.737Z,77.50
2024-02-10T17:19:09.834Z,157.40
2024-02-10T17:21:37.589Z,70.40
2024-02-10T17:24:05.154Z,41.70
2024-02-10T17:26:32.718Z,49.20
2024-02-10T17:29:00.300Z,61.10
2024-02-10T17:31:28.058Z,46.30
2024-02-10T17:33:55.690Z,47.00
2024-02-10T17:36:23.404Z,47.40
2024-02-10T17:38:51.037Z,47.00
2024-02-10T17:41:19.057Z,46.80
2024-02-10T17:43:46.672Z,36.80
2024-02-10T17:46:14.417Z,28.20
2024-02-10T17:48:42.046Z,41.80
2024-02-10T17:51:09.847Z,44.10
2024-02-10T17:53:38.052Z,39.90
2024-02-10T17:56:05.907Z,35.70
2024-02-10T17:58:33.970Z,36.70
2024-02-10T18:01:02.254Z,36.10
2024-02-10T18:03:32.602Z,38.70
2024-02-10T18:06:02.722Z,33.00
2024-02-10T18:08:30.847Z,30.60
2024-02-10T18:10:58.737Z,27.90
2024-02-10T18:13:26.616Z,25.80
2024-02-10T18:15:54.136Z,25.30
2024-02-10T18:18:21.802Z,22.60
2024-02-10T18:20:49.377Z,24.20
2024-02-10T18:23:17.206Z,23.10
2024-02-10T18:25:45.364Z,22.70
2024-02-10T18:28:13.273Z,22.40
2024-02-10T18:30:40.829Z,23.50
2024-02-10T18:33:08.599Z,22.60
2024-02-10T18:35:36.251Z,21.70
2024-02-10T18:38:03.996Z,22.10
2024-02-10T18:40:31.707Z,19.50
2024-02-10T18:42:59.568Z,19.60
2024-02-10T18:45:27.410Z,18.40
2024-02-10T18:47:55.160Z,18.90
2024-02-10T18:50:23.090Z,21.30
2024-02-10T18:52:50.927Z,19.00
2024-02-10T18:55:18.670Z,19.30
2024-02-10T18:57:46.321Z,20.40
2024-02-10T19:00:13.894Z,19.90
2024-02-10T19:02:41.342Z,19.80
2024-02-10T19:05:08.990Z,14.90
2024-02-10T19:07:36.873Z,15.50
2024-02-10T19:10:04.742Z,14.70
2024-02-10T19:12:32.398Z,14.30
2024-02-10T19:14:59.978Z,19.70
2024-02-10T19:17:27.628Z,14.70
2024-02-10T19:19:55.294Z,19.90
2024-02-10T19:22:22.849Z,17.60
2024-02-10T19:24:50.502Z,14.70
2024-02-10T19:27:18.461Z,12.80
2024-02-10T19:29:46.032Z,11.90
2024-02-10T19:32:13.676Z,12.60
2024-02-10T19:34:41.920Z,12.50
2024-02-10T19:37:09.722Z,12.80
2024-02-10T19:39:37.381Z,12.30
2024-02-10T19:42:05.041Z,11.90
2024-02-10T19:44:33.021Z,11.70
2024-02-10T19:47:01.019Z,9.90
2024-02-10T19:49:28.785Z,10.00
2024-02-10T19:51:56.511Z,11.40
2024-02-10T19:54:24.060Z,10.90
2024-02-10T19:56:51.627Z,10.40
2024-02-10T19:59:19.225Z,9.50
2024-02-10T20:01:47.090Z,13.00
2024-02-10T20:04:14.714Z,17.60
2024-02-10T20:06:42.862Z,13.20
2024-02-10T20:09:10.654Z,12.70
2024-02-10T20:11:38.310Z,13.60
2024-02-10T20:14:06.016Z,13.20
2024-02-10T20:16:38.671Z,11.40
2024-02-10T20:19:06.441Z,10.50
2024-02-10T20:21:34.089Z,12.40
2024-02-10T20:24:01.766Z,11.20
2024-02-10T20:26:29.509Z,11.40
2024-02-10T20:28:57.403Z,11.30
2024-02-10T20:31:25.094Z,11.00
2024-02-10T20:33:52.825Z,11.20
2024-02-10T20:36:20.653Z,11.00
2024-02-10T20:38:48.207Z,10.80
2024-02-10T20:41:15.847Z,12.90
2024-02-10T20:43:43.588Z,10.30
2024-02-10T20:46:11.093Z,13.40
2024-02-10T20:48:39.138Z,14.10
2024-02-10T20:51:07.034Z,11.40
2024-02-10T20:53:35.949Z,12.30
2024-02-10T20:56:03.535Z,12.10
2024-02-10T20:58:31.303Z,13.00
2024-02-10T21:00:58.997Z,11.20
2024-02-10T21:03:26.922Z,13.60
2024-02-10T21:05:54.706Z,12.90
2024-02-10T21:08:22.806Z,13.30
2024-02-10T21:10:50.392Z,14.10
2024-02-10T21:13:18.052Z,18.50
2024-02-10T21:15:45.693Z,14.50
2024-02-10T21:18:13.453Z,15.90
2024-02-10T21:20:41.385Z,14.60
2024-02-10T21:23:09.209Z,15.30
2024-02-10T21:25:37.018Z,15.60
2024-02-10T21:28:04.712Z,15.70
2024-02-10T21:30:32.711Z,14.40
2024-02-10T21:33:00.383Z,14.50
2024-02-10T21:35:28.207Z,14.10
2024-02-10T21:37:55.898Z,14.40
2024-02-10T21:40:23.533Z,15.00
2024-02-10T21:42:50.887Z,13.90
2024-02-10T21:45:18.549Z,16.10
2024-02-10T21:47:46.339Z,13.00
2024-02-10T21:50:14.224Z,17.50
2024-02-10T21:52:41.958Z,14.00
2024-02-10T21:55:09.595Z,14.60
2024-02-10T21:57:37.484Z,22.30
2024-02-10T22:00:05.124Z,15.20
2024-02-10T22:02:34.737Z,16.20
2024-02-10T22:05:03.282Z,15.40
2024-02-10T22:07:31.120Z,16.50
2024-02-10T22:09:58.649Z,16.70
2024-02-10T22:12:26.297Z,14.70
2024-02-10T22:14:54.267Z,15.80
2024-02-10T22:17:21.866Z,15.60
2024-02-10T22:19:49.498Z,15.70
2024-02-10T22:22:17.148Z,14.20
2024-02-10T22:24:44.821Z,12.40
2024-02-10T22:27:12.470Z,13.70
2024-02-10T22:29:40.131Z,15.70
2024-02-10T22:32:08.048Z,12.90
2024-02-10T22:34:35.780Z,14.70
2024-02-10T22:37:04.025Z,13.50
2024-02-10T22:39:31.709Z,12.90
2024-02-10T22:41:59.367Z,13.60
2024-02-10T22:44:26.941Z,15.90
2024-02-10T22:47:02.346Z,12.80
2024-02-10T22:49:38.008Z,11.50
2024-02-10T22:52:05.685Z,11.80
2024-02-10T22:54:35.338Z,13.20
2024-02-10T22:57:04.502Z,13.40
2024-02-10T22:59:32.146Z,11.40
2024-02-10T23:01:59.755Z,12.40
2024-02-10T23:04:27.469Z,12.70
2024-02-10T23:06:55.045Z,11.50
2024-02-10T23:09:22.591Z,13.20
2024-02-10T23:11:50.249Z,12.70
2024-02-10T23:14:18.131Z,9.60
2024-02-10T23:16:45.893Z,13.30
2024-02-10T23:19:13.446Z,13.00
2024-02-10T23:21:41.094Z,12.10
2024-02-10T23:24:08.657Z,12.10
2024-02-10T23:26:36.321Z,11.70
2024-02-10T23:29:04.008Z,11.40
2024-02-10T23:31:31.731Z,8.30
2024-02-10T23:33:59.555Z,7.20
2024-02-10T23:36:27.483Z,8.90
2024-02-10T23:38:55.129Z,7.50
2024-02-10T23:41:22.708Z,8.70
2024-02-10T23:43:50.270Z,6.30
2024-02-10T23:46:17.928Z,8.30
2024-02-10T23:48:50.870Z,7.60
2024-02-10T23:51:21.743Z,8.40
2024-02-10T23:53:49.294Z,6.30
2024-02-10T23:56:17.327Z,8.40
2024-02-10T23:58:45.024Z,7.20
